sensor_id;sensor_type;location;lat;lon;timestamp;pressure;altitude;pressure_sealevel;temperature;humidity
40992;BME280;29633;49.168;9.848;2023-02-20T00:00:32;97849.28;;;11.67;71.46
40992;BME280;29633;49.168;9.848;2023-02-20T00:02:58;97842.97;;;11.71;71.37
40992;BME280;29633;49.168;9.848;2023-02-20T00:05:24;97842.53;;;11.77;71.25
40992;BME280;29633;49.168;9.848;2023-02-20T00:07:50;97836.31;;;11.79;71.44
40992;BME280;29633;49.168;9.848;2023-02-20T00:10:16;97830.94;;;11.82;71.13
40992;BME280;29633;49.168;9.848;2023-02-20T00:12:42;97838.38;;;11.87;71.03
40992;BME280;29633;49.168;9.848;2023-02-20T00:15:08;97844.09;;;11.92;70.53
40992;BME280;29633;49.168;9.848;2023-02-20T00:17:34;97844.09;;;11.92;70.88
40992;BME280;29633;49.168;9.848;2023-02-20T00:20:00;97838.81;;;11.94;71.02
40992;BME280;29633;49.168;9.848;2023-02-20T00:22:26;97849.81;;;11.97;70.94
40992;BME280;29633;49.168;9.848;2023-02-20T00:24:52;97846.50;;;11.95;70.80
40992;BME280;29633;49.168;9.848;2023-02-20T00:27:18;97845.03;;;11.91;70.78
40992;BME280;29633;49.168;9.848;2023-02-20T00:29:44;97853.13;;;11.87;70.94
40992;BME280;29633;49.168;9.848;2023-02-20T00:32:11;97860.44;;;11.81;71.07
40992;BME280;29633;49.168;9.848;2023-02-20T00:34:36;97867.69;;;11.76;71.11
40992;BME280;29633;49.168;9.848;2023-02-20T00:37:02;97866.34;;;11.71;71.03
40992;BME280;29633;49.168;9.848;2023-02-20T00:39:28;97864.84;;;11.67;71.19
40992;BME280;29633;49.168;9.848;2023-02-20T00:41:53;97869.22;;;11.66;71.27
40992;BME280;29633;49.168;9.848;2023-02-20T00:44:21;97867.66;;;11.64;71.13
40992;BME280;29633;49.168;9.848;2023-02-20T00:46:46;97856.66;;;11.60;71.19
40992;BME280;29633;49.168;9.848;2023-02-20T00:49:12;97845.53;;;11.58;71.31
40992;BME280;29633;49.168;9.848;2023-02-20T00:51:38;97840.31;;;11.58;71.21
40992;BME280;29633;49.168;9.848;2023-02-20T00:54:04;97840.44;;;11.57;71.31
40992;BME280;29633;49.168;9.848;2023-02-20T00:56:29;97853.31;;;11.58;71.04
40992;BME280;29633;49.168;9.848;2023-02-20T00:58:55;97853.31;;;11.58;70.88
40992;BME280;29633;49.168;9.848;2023-02-20T01:01:21;97847.91;;;11.61;71.23
40992;BME280;29633;49.168;9.848;2023-02-20T01:03:47;97843.66;;;11.60;71.12
40992;BME280;29633;49.168;9.848;2023-02-20T01:06:13;97843.75;;;11.59;71.18
40992;BME280;29633;49.168;9.848;2023-02-20T01:08:38;97850.84;;;11.57;71.02
40992;BME280;29633;49.168;9.848;2023-02-20T01:11:04;97839.63;;;11.56;71.07
40992;BME280;29633;49.168;9.848;2023-02-20T01:13:30;97829.22;;;11.56;71.04
40992;BME280;29633;49.168;9.848;2023-02-20T01:15:56;97840.44;;;11.57;71.11
40992;BME280;29633;49.168;9.848;2023-02-20T01:18:21;97837.00;;;11.56;71.03
40992;BME280;29633;49.168;9.848;2023-02-20T01:20:47;97847.41;;;11.56;71.14
40992;BME280;29633;49.168;9.848;2023-02-20T01:23:13;97850.84;;;11.57;71.20
40992;BME280;29633;49.168;9.848;2023-02-20T01:25:38;97840.44;;;11.57;71.28
40992;BME280;29633;49.168;9.848;2023-02-20T01:28:04;97837.84;;;11.57;70.83
40992;BME280;29633;49.168;9.848;2023-02-20T01:30:30;97850.50;;;11.61;71.16
40992;BME280;29633;49.168;9.848;2023-02-20T01:32:55;97846.97;;;11.62;70.73
40992;BME280;29633;49.168;9.848;2023-02-20T01:35:21;97845.22;;;11.63;70.94
40992;BME280;29633;49.168;9.848;2023-02-20T01:37:46;97838.03;;;11.66;70.90
40992;BME280;29633;49.168;9.848;2023-02-20T01:40:17;97834.53;;;11.67;70.96
40992;BME280;29633;49.168;9.848;2023-02-20T01:42:44;97837.84;;;11.69;70.88
40992;BME280;29633;49.168;9.848;2023-02-20T01:45:16;97829.78;;;11.74;70.80
40992;BME280;29633;49.168;9.848;2023-02-20T01:47:43;97822.81;;;11.74;70.92
40992;BME280;29633;49.168;9.848;2023-02-20T01:50:09;97823.03;;;11.71;70.83
40992;BME280;29633;49.168;9.848;2023-02-20T01:52:35;97810.94;;;11.70;70.86
40992;BME280;29633;49.168;9.848;2023-02-20T01:55:16;97810.88;;;11.72;70.69
40992;BME280;29633;49.168;9.848;2023-02-20T01:57:48;97810.75;;;11.73;70.87
40992;BME280;29633;49.168;9.848;2023-02-20T02:00:18;97804.72;;;11.73;70.82
40992;BME280;29633;49.168;9.848;2023-02-20T02:02:49;97804.00;;;11.71;70.97
40992;BME280;29633;49.168;9.848;2023-02-20T02:05:17;97808.44;;;11.69;70.70
40992;BME280;29633;49.168;9.848;2023-02-20T02:07:43;97813.00;;;11.65;70.99
40992;BME280;29633;49.168;9.848;2023-02-20T02:10:12;97807.09;;;11.63;70.89
40992;BME280;29633;49.168;9.848;2023-02-20T02:12:38;97810.53;;;11.64;71.07
40992;BME280;29633;49.168;9.848;2023-02-20T02:15:15;97795.97;;;11.61;70.59
40992;BME280;29633;49.168;9.848;2023-02-20T02:18:37;97801.38;;;11.58;71.00
40992;BME280;29633;49.168;9.848;2023-02-20T02:29:20;97814.69;;;11.54;71.00
40992;BME280;29633;49.168;9.848;2023-02-20T02:32:18;97809.59;;;11.52;70.78
40992;BME280;29633;49.168;9.848;2023-02-20T02:43:54;97784.94;;;11.32;70.86
40992;BME280;29633;49.168;9.848;2023-02-20T02:46:46;97786.00;;;11.30;71.02
40992;BME280;29633;49.168;9.848;2023-02-20T02:49:28;97789.72;;;11.26;71.17
40992;BME280;29633;49.168;9.848;2023-02-20T02:51:55;97787.56;;;11.20;71.21
40992;BME280;29633;49.168;9.848;2023-02-20T02:54:24;97792.94;;;11.17;71.09
40992;BME280;29633;49.168;9.848;2023-02-20T02:56:51;97788.78;;;11.14;71.09
40992;BME280;29633;49.168;9.848;2023-02-20T02:59:26;97786.38;;;11.11;70.97
40992;BME280;29633;49.168;9.848;2023-02-20T03:01:59;97786.50;;;11.10;70.93
40992;BME280;29633;49.168;9.848;2023-02-20T03:04:26;97793.66;;;11.06;71.18
40992;BME280;29633;49.168;9.848;2023-02-20T03:06:56;97801.66;;;11.03;70.75
40992;BME280;29633;49.168;9.848;2023-02-20T03:09:26;97808.78;;;11.00;71.02
40992;BME280;29633;49.168;9.848;2023-02-20T03:11:54;97811.06;;;10.92;71.04
40992;BME280;29633;49.168;9.848;2023-02-20T03:14:24;97813.13;;;10.86;70.73
40992;BME280;29633;49.168;9.848;2023-02-20T03:17:36;97807.50;;;10.80;71.07
40992;BME280;29633;49.168;9.848;2023-02-20T03:20:09;97803.34;;;10.77;71.11
40992;BME280;29633;49.168;9.848;2023-02-20T03:22:56;97812.06;;;10.76;71.02
40992;BME280;29633;49.168;9.848;2023-02-20T03:25:30;97795.84;;;10.73;71.13
40992;BME280;29633;49.168;9.848;2023-02-20T03:28:17;97803.63;;;10.73;71.19
40992;BME280;29633;49.168;9.848;2023-02-20T03:30:58;97804.03;;;10.67;71.02
40992;BME280;29633;49.168;9.848;2023-02-20T03:33:36;97809.50;;;10.62;71.12
40992;BME280;29633;49.168;9.848;2023-02-20T03:36:26;97804.53;;;10.59;71.23
40992;BME280;29633;49.168;9.848;2023-02-20T03:39:16;97803.78;;;10.57;71.02
40992;BME280;29633;49.168;9.848;2023-02-20T03:42:01;97805.66;;;10.55;71.08
40992;BME280;29633;49.168;9.848;2023-02-20T03:44:47;97799.50;;;10.56;71.13
40992;BME280;29633;49.168;9.848;2023-02-20T03:47:14;97800.34;;;10.57;71.31
40992;BME280;29633;49.168;9.848;2023-02-20T03:49:43;97803.25;;;10.52;71.20
40992;BME280;29633;49.168;9.848;2023-02-20T03:52:28;97801.88;;;10.47;70.88
40992;BME280;29633;49.168;9.848;2023-02-20T03:54:55;97798.66;;;10.43;70.98
40992;BME280;29633;49.168;9.848;2023-02-20T03:57:26;97793.56;;;10.42;70.94
40992;BME280;29633;49.168;9.848;2023-02-20T04:00:05;97799.75;;;10.39;71.22
40992;BME280;29633;49.168;9.848;2023-02-20T04:02:37;97795.53;;;10.38;71.23
40992;BME280;29633;49.168;9.848;2023-02-20T04:05:06;97795.53;;;10.38;71.02
40992;BME280;29633;49.168;9.848;2023-02-20T04:10:21;97798.78;;;10.27;71.18
40992;BME280;29633;49.168;9.848;2023-02-20T04:12:47;97804.16;;;10.24;71.00
40992;BME280;29633;49.168;9.848;2023-02-20T04:15:14;97801.75;;;10.21;71.34
40992;BME280;29633;49.168;9.848;2023-02-20T04:17:49;97802.59;;;10.22;71.25
40992;BME280;29633;49.168;9.848;2023-02-20T04:20:16;97796.69;;;10.20;71.12
40992;BME280;29633;49.168;9.848;2023-02-20T04:22:44;97792.41;;;10.19;71.15
40992;BME280;29633;49.168;9.848;2023-02-20T04:27:50;97788.06;;;10.19;71.03
40992;BME280;29633;49.168;9.848;2023-02-20T04:30:16;97793.34;;;10.18;70.90
40992;BME280;29633;49.168;9.848;2023-02-20T04:32:42;97790.88;;;10.16;71.09
40992;BME280;29633;49.168;9.848;2023-02-20T04:35:15;97799.59;;;10.14;71.21
40992;BME280;29633;49.168;9.848;2023-02-20T04:37:41;97794.63;;;10.11;71.14
40992;BME280;29633;49.168;9.848;2023-02-20T04:40:08;97795.66;;;10.08;71.16
40992;BME280;29633;49.168;9.848;2023-02-20T04:42:34;97790.66;;;10.05;71.19
40992;BME280;29633;49.168;9.848;2023-02-20T04:44:59;97797.78;;;10.02;71.32
40992;BME280;29633;49.168;9.848;2023-02-20T04:47:25;97802.34;;;9.98;71.22
40992;BME280;29633;49.168;9.848;2023-02-20T04:49:50;97803.31;;;9.96;71.33
40992;BME280;29633;49.168;9.848;2023-02-20T04:52:16;97797.44;;;9.94;71.33
40992;BME280;29633;49.168;9.848;2023-02-20T04:54:42;97803.53;;;9.93;71.56
40992;BME280;29633;49.168;9.848;2023-02-20T04:57:07;97809.53;;;9.93;71.38
40992;BME280;29633;49.168;9.848;2023-02-20T04:59:33;97808.06;;;9.89;71.55
40992;BME280;29633;49.168;9.848;2023-02-20T05:01:58;97798.72;;;9.86;71.26
40992;BME280;29633;49.168;9.848;2023-02-20T05:04:27;97806.56;;;9.85;71.38
40992;BME280;29633;49.168;9.848;2023-02-20T05:06:55;97805.00;;;9.82;71.42
40992;BME280;29633;49.168;9.848;2023-02-20T05:09:21;97812.78;;;9.82;71.29
40992;BME280;29633;49.168;9.848;2023-02-20T05:11:47;97806.78;;;9.82;71.41
40992;BME280;29633;49.168;9.848;2023-02-20T05:14:13;97799.19;;;9.79;71.63
40992;BME280;29633;49.168;9.848;2023-02-20T05:16:40;97801.13;;;9.75;71.60
40992;BME280;29633;49.168;9.848;2023-02-20T05:19:06;97813.25;;;9.75;71.69
40992;BME280;29633;49.168;9.848;2023-02-20T05:21:32;97804.63;;;9.74;71.63
40992;BME280;29633;49.168;9.848;2023-02-20T05:24:17;97807.22;;;9.74;71.75
40992;BME280;29633;49.168;9.848;2023-02-20T05:26:43;97808.06;;;9.75;71.54
40992;BME280;29633;49.168;9.848;2023-02-20T05:29:08;97811.50;;;9.75;71.40
40992;BME280;29633;49.168;9.848;2023-02-20T05:31:38;97807.03;;;9.77;71.63
40992;BME280;29633;49.168;9.848;2023-02-20T05:34:04;97805.22;;;9.79;71.61
40992;BME280;29633;49.168;9.848;2023-02-20T05:36:29;97805.00;;;9.82;71.58
40992;BME280;29633;49.168;9.848;2023-02-20T05:38:55;97809.28;;;9.83;71.45
40992;BME280;29633;49.168;9.848;2023-02-20T05:41:21;97815.91;;;9.87;71.20
40992;BME280;29633;49.168;9.848;2023-02-20T05:43:46;97813.03;;;9.92;71.34
40992;BME280;29633;49.168;9.848;2023-02-20T05:46:13;97817.88;;;9.98;71.15
40992;BME280;29633;49.168;9.848;2023-02-20T05:48:39;97818.31;;;10.05;71.22
40992;BME280;29633;49.168;9.848;2023-02-20T05:51:05;97821.63;;;10.07;71.10
40992;BME280;29633;49.168;9.848;2023-02-20T05:53:31;97811.09;;;10.10;71.05
40992;BME280;29633;49.168;9.848;2023-02-20T05:55:57;97813.50;;;10.13;70.93
40992;BME280;29633;49.168;9.848;2023-02-20T05:58:23;97814.19;;;10.16;71.13
40992;BME280;29633;49.168;9.848;2023-02-20T06:00:49;97819.06;;;10.21;71.08
40992;BME280;29633;49.168;9.848;2023-02-20T06:03:18;97821.38;;;10.25;70.98
40992;BME280;29633;49.168;9.848;2023-02-20T06:05:44;97819.50;;;10.27;71.13
40992;BME280;29633;49.168;9.848;2023-02-20T06:08:09;97823.75;;;10.28;71.04
40992;BME280;29633;49.168;9.848;2023-02-20T06:10:35;97821.63;;;10.35;71.00
40992;BME280;29633;49.168;9.848;2023-02-20T06:13:01;97812.91;;;10.36;70.92
40992;BME280;29633;49.168;9.848;2023-02-20T06:15:27;97816.06;;;10.41;70.95
40992;BME280;29633;49.168;9.848;2023-02-20T06:17:52;97817.53;;;10.45;71.03
40992;BME280;29633;49.168;9.848;2023-02-20T06:20:18;97820.84;;;10.47;71.23
40992;BME280;29633;49.168;9.848;2023-02-20T06:22:48;97819.53;;;10.54;70.64
40992;BME280;29633;49.168;9.848;2023-02-20T06:25:14;97821.72;;;10.60;71.01
40992;BME280;29633;49.168;9.848;2023-02-20T06:27:39;97819.06;;;10.62;70.73
40992;BME280;29633;49.168;9.848;2023-02-20T06:30:05;97826.09;;;10.60;71.08
40992;BME280;29633;49.168;9.848;2023-02-20T06:32:31;97826.28;;;10.57;71.00
40992;BME280;29633;49.168;9.848;2023-02-20T06:34:57;97828.97;;;10.55;71.01
40992;BME280;29633;49.168;9.848;2023-02-20T06:37:25;97834.38;;;10.52;71.17
40992;BME280;29633;49.168;9.848;2023-02-20T06:39:50;97836.84;;;10.54;71.16
40992;BME280;29633;49.168;9.848;2023-02-20T06:42:16;97829.91;;;10.54;71.60
40992;BME280;29633;49.168;9.848;2023-02-20T06:44:42;97838.25;;;10.59;71.33
40992;BME280;29633;49.168;9.848;2023-02-20T06:47:07;97838.75;;;10.64;71.20
40992;BME280;29633;49.168;9.848;2023-02-20T06:49:37;97828.19;;;10.67;71.14
40992;BME280;29633;49.168;9.848;2023-02-20T06:52:06;97826.44;;;10.68;71.17
40992;BME280;29633;49.168;9.848;2023-02-20T06:54:32;97823.00;;;10.67;71.04
40992;BME280;29633;49.168;9.848;2023-02-20T06:56:59;97828.09;;;10.69;71.03
40992;BME280;29633;49.168;9.848;2023-02-20T06:59:25;97834.00;;;10.71;71.19
40992;BME280;29633;49.168;9.848;2023-02-20T07:01:51;97831.34;;;10.72;71.06
40992;BME280;29633;49.168;9.848;2023-02-20T07:04:21;97826.69;;;10.77;71.17
40992;BME280;29633;49.168;9.848;2023-02-20T07:06:47;97836.03;;;10.80;71.08
40992;BME280;29633;49.168;9.848;2023-02-20T07:09:14;97845.38;;;10.82;71.20
40992;BME280;29633;49.168;9.848;2023-02-20T07:11:40;97840.09;;;10.84;71.13
40992;BME280;29633;49.168;9.848;2023-02-20T07:14:06;97852.13;;;10.85;71.39
40992;BME280;29633;49.168;9.848;2023-02-20T07:16:31;97844.88;;;10.90;71.32
40992;BME280;29633;49.168;9.848;2023-02-20T07:18:57;97848.22;;;10.92;71.07
40992;BME280;29633;49.168;9.848;2023-02-20T07:21:23;97847.91;;;10.97;71.23
40992;BME280;29633;49.168;9.848;2023-02-20T07:23:48;97847.59;;;11.01;71.14
40992;BME280;29633;49.168;9.848;2023-02-20T07:26:22;97828.59;;;11.01;71.23
40992;BME280;29633;49.168;9.848;2023-02-20T07:28:48;97828.19;;;10.94;71.23
40992;BME280;29633;49.168;9.848;2023-02-20T07:31:14;97823.91;;;10.93;71.22
40992;BME280;29633;49.168;9.848;2023-02-20T07:33:40;97821.44;;;10.92;71.20
40992;BME280;29633;49.168;9.848;2023-02-20T07:36:12;97821.44;;;10.92;71.24
40992;BME280;29633;49.168;9.848;2023-02-20T07:38:38;97824.75;;;10.94;71.56
40992;BME280;29633;49.168;9.848;2023-02-20T07:41:04;97828.72;;;10.99;71.68
40992;BME280;29633;49.168;9.848;2023-02-20T07:43:30;97844.72;;;11.06;71.49
40992;BME280;29633;49.168;9.848;2023-02-20T07:45:55;97843.28;;;11.14;71.46
40992;BME280;29633;49.168;9.848;2023-02-20T07:48:21;97846.84;;;11.26;71.42
40992;BME280;29633;49.168;9.848;2023-02-20T07:50:47;97842.50;;;11.39;70.92
40992;BME280;29633;49.168;9.848;2023-02-20T07:53:14;97823.00;;;11.46;71.18
40992;BME280;29633;49.168;9.848;2023-02-20T07:55:40;97823.50;;;11.51;70.95
40992;BME280;29633;49.168;9.848;2023-02-20T07:58:05;97829.00;;;11.59;71.14
40992;BME280;29633;49.168;9.848;2023-02-20T08:00:33;97824.44;;;11.63;71.27
40992;BME280;29633;49.168;9.848;2023-02-20T08:02:59;97830.16;;;11.68;70.84
40992;BME280;29633;49.168;9.848;2023-02-20T08:05:25;97831.44;;;11.75;70.99
40992;BME280;29633;49.168;9.848;2023-02-20T08:07:51;97828.19;;;11.84;70.77
40992;BME280;29633;49.168;9.848;2023-02-20T08:10:22;97819.16;;;11.90;70.78
40992;BME280;29633;49.168;9.848;2023-02-20T08:12:49;97814.91;;;11.89;70.88
40992;BME280;29633;49.168;9.848;2023-02-20T08:15:19;97807.41;;;11.84;70.79
40992;BME280;29633;49.168;9.848;2023-02-20T08:17:44;97813.44;;;11.84;71.01
40992;BME280;29633;49.168;9.848;2023-02-20T08:20:10;97811.28;;;11.78;71.00
40992;BME280;29633;49.168;9.848;2023-02-20T08:22:36;97810.53;;;11.76;71.06
40992;BME280;29633;49.168;9.848;2023-02-20T08:27:41;97808.28;;;11.72;71.07
40992;BME280;29633;49.168;9.848;2023-02-20T08:30:12;97808.44;;;11.69;71.13
40992;BME280;29633;49.168;9.848;2023-02-20T08:32:38;97812.41;;;11.74;71.26
40992;BME280;29633;49.168;9.848;2023-02-20T08:35:04;97810.53;;;11.89;71.01
40992;BME280;29633;49.168;9.848;2023-02-20T08:37:30;97816.84;;;11.98;70.94
40992;BME280;29633;49.168;9.848;2023-02-20T08:39:56;97817.16;;;12.06;70.71
40992;BME280;29633;49.168;9.848;2023-02-20T08:42:22;97808.00;;;12.13;70.72
40992;BME280;29633;49.168;9.848;2023-02-20T08:44:47;97811.19;;;12.29;70.61
40992;BME280;29633;49.168;9.848;2023-02-20T08:47:13;97811.03;;;12.43;70.44
40992;BME280;29633;49.168;9.848;2023-02-20T08:49:38;97814.03;;;12.73;69.80
40992;BME280;29633;49.168;9.848;2023-02-20T08:52:04;97804.38;;;13.10;69.48
40992;BME280;29633;49.168;9.848;2023-02-20T08:54:30;97799.88;;;13.58;68.99
40992;BME280;29633;49.168;9.848;2023-02-20T08:56:55;97798.72;;;14.07;67.90
40992;BME280;29633;49.168;9.848;2023-02-20T08:59:21;97800.84;;;14.46;67.76
40992;BME280;29633;49.168;9.848;2023-02-20T09:01:47;97784.06;;;15.74;65.33
40992;BME280;29633;49.168;9.848;2023-02-20T09:04:12;97787.97;;;16.69;63.96
40992;BME280;29633;49.168;9.848;2023-02-20T09:06:40;97782.69;;;17.46;63.06
40992;BME280;29633;49.168;9.848;2023-02-20T09:09:05;97778.44;;;17.92;63.03
40992;BME280;29633;49.168;9.848;2023-02-20T09:11:31;97775.19;;;18.35;62.80
40992;BME280;29633;49.168;9.848;2023-02-20T09:13:57;97777.84;;;18.80;62.62
40992;BME280;29633;49.168;9.848;2023-02-20T09:16:24;97769.91;;;19.33;62.45
40992;BME280;29633;49.168;9.848;2023-02-20T09:18:49;97757.75;;;19.57;63.00
40992;BME280;29633;49.168;9.848;2023-02-20T09:21:17;97772.56;;;19.58;63.43
40992;BME280;29633;49.168;9.848;2023-02-20T09:23:43;97763.34;;;19.54;64.38
40992;BME280;29633;49.168;9.848;2023-02-20T09:26:09;97765.16;;;19.36;64.79
40992;BME280;29633;49.168;9.848;2023-02-20T09:28:35;97769.34;;;19.03;65.90
40992;BME280;29633;49.168;9.848;2023-02-20T09:31:00;97759.97;;;18.65;66.17
40992;BME280;29633;49.168;9.848;2023-02-20T09:33:27;97763.66;;;18.45;66.67
40992;BME280;29633;49.168;9.848;2023-02-20T09:35:53;97756.28;;;18.31;67.04
40992;BME280;29633;49.168;9.848;2023-02-20T09:38:23;97766.50;;;18.07;67.53
40992;BME280;29633;49.168;9.848;2023-02-20T09:40:53;97761.13;;;18.08;67.69
40992;BME280;29633;49.168;9.848;2023-02-20T09:51:01;97739.38;;;18.96;66.52
40992;BME280;29633;49.168;9.848;2023-02-20T09:54:00;97731.72;;;19.46;66.00
40992;BME280;29633;49.168;9.848;2023-02-20T09:56:25;97735.56;;;19.86;66.14
40992;BME280;29633;49.168;9.848;2023-02-20T09:59:15;97729.84;;;20.32;65.92
40992;BME280;29633;49.168;9.848;2023-02-20T10:01:51;97732.72;;;20.87;65.20
40992;BME280;29633;49.168;9.848;2023-02-20T10:04:20;97724.69;;;21.29;64.23
40992;BME280;29633;49.168;9.848;2023-02-20T10:06:48;97725.22;;;21.80;63.38
40992;BME280;29633;49.168;9.848;2023-02-20T10:09:15;97735.69;;;22.43;62.09
40992;BME280;29633;49.168;9.848;2023-02-20T10:22:33;97728.56;;;20.36;64.39
40992;BME280;29633;49.168;9.848;2023-02-20T10:25:19;97733.31;;;19.99;64.83
40992;BME280;29633;49.168;9.848;2023-02-20T10:28:11;97725.94;;;19.69;65.56
40992;BME280;29633;49.168;9.848;2023-02-20T10:30:48;97724.75;;;19.37;65.57
40992;BME280;29633;49.168;9.848;2023-02-20T10:38:49;97721.97;;;18.60;66.26
40992;BME280;29633;49.168;9.848;2023-02-20T10:41:28;97721.63;;;18.45;66.17
40992;BME280;29633;49.168;9.848;2023-02-20T10:44:17;97716.53;;;18.26;66.34
40992;BME280;29633;49.168;9.848;2023-02-20T10:47:03;97719.66;;;18.12;66.53
40992;BME280;29633;49.168;9.848;2023-02-20T10:49:55;97720.09;;;18.07;66.65
40992;BME280;29633;49.168;9.848;2023-02-20T10:52:28;97715.88;;;17.97;66.58
40992;BME280;29633;49.168;9.848;2023-02-20T10:55:07;97710.28;;;17.82;66.45
40992;BME280;29633;49.168;9.848;2023-02-20T10:57:53;97712.56;;;17.67;66.91
40992;BME280;29633;49.168;9.848;2023-02-20T11:00:29;97706.63;;;17.56;66.74
40992;BME280;29633;49.168;9.848;2023-02-20T11:06:01;97693.13;;;17.51;66.77
40992;BME280;29633;49.168;9.848;2023-02-20T11:08:27;97688.16;;;17.48;66.99
40992;BME280;29633;49.168;9.848;2023-02-20T11:10:55;97691.50;;;17.50;66.70
40992;BME280;29633;49.168;9.848;2023-02-20T11:13:23;97685.16;;;17.43;66.63
40992;BME280;29633;49.168;9.848;2023-02-20T11:15:51;97677.44;;;17.41;66.71
40992;BME280;29633;49.168;9.848;2023-02-20T11:18:36;97678.81;;;17.45;66.77
40992;BME280;29633;49.168;9.848;2023-02-20T11:21:03;97669.69;;;17.49;66.78
40992;BME280;29633;49.168;9.848;2023-02-20T11:23:54;97670.22;;;17.53;66.60
40992;BME280;29633;49.168;9.848;2023-02-20T11:29:10;97652.06;;;17.42;66.69
40992;BME280;29633;49.168;9.848;2023-02-20T11:31:37;97654.91;;;17.48;66.64
40992;BME280;29633;49.168;9.848;2023-02-20T11:34:04;97647.34;;;17.45;66.61
40992;BME280;29633;49.168;9.848;2023-02-20T11:36:41;97634.53;;;17.42;66.70
40992;BME280;29633;49.168;9.848;2023-02-20T11:39:25;97636.63;;;17.39;66.67
40992;BME280;29633;49.168;9.848;2023-02-20T11:42:11;97631.63;;;17.45;66.48
40992;BME280;29633;49.168;9.848;2023-02-20T11:44:37;97632.97;;;17.49;66.26
40992;BME280;29633;49.168;9.848;2023-02-20T11:47:22;97621.66;;;17.49;66.42
40992;BME280;29633;49.168;9.848;2023-02-20T11:49:49;97617.09;;;17.60;66.17
40992;BME280;29633;49.168;9.848;2023-02-20T11:52:20;97619.94;;;17.67;66.25
40992;BME280;29633;49.168;9.848;2023-02-20T11:55:09;97612.09;;;17.67;66.14
40992;BME280;29633;49.168;9.848;2023-02-20T11:57:32;97601.81;;;17.74;66.38
40992;BME280;29633;49.168;9.848;2023-02-20T12:00:26;97606.34;;;17.81;66.00
40992;BME280;29633;49.168;9.848;2023-02-20T12:05:36;97594.16;;;17.90;65.89
40992;BME280;29633;49.168;9.848;2023-02-20T12:08:02;97587.75;;;17.92;65.78
40992;BME280;29633;49.168;9.848;2023-02-20T12:10:42;97589.34;;;18.03;65.87
40992;BME280;29633;49.168;9.848;2023-02-20T12:13:13;97582.69;;;18.08;65.66
40992;BME280;29633;49.168;9.848;2023-02-20T12:15:39;97575.69;;;18.17;65.71
40992;BME280;29633;49.168;9.848;2023-02-20T12:20:40;97568.63;;;18.35;65.67
40992;BME280;29633;49.168;9.848;2023-02-20T12:23:32;97569.34;;;18.45;65.55
40992;BME280;29633;49.168;9.848;2023-02-20T12:31:29;97561.19;;;18.48;65.49
40992;BME280;29633;49.168;9.848;2023-02-20T12:34:27;97554.94;;;18.49;65.52
40992;BME280;29633;49.168;9.848;2023-02-20T12:37:13;97556.72;;;18.58;65.49
40992;BME280;29633;49.168;9.848;2023-02-20T12:45:07;97540.06;;;18.76;65.57
40992;BME280;29633;49.168;9.848;2023-02-20T12:47:39;97531.88;;;18.79;65.50
40992;BME280;29633;49.168;9.848;2023-02-20T12:56:40;97516.72;;;19.06;65.05
40992;BME280;29633;49.168;9.848;2023-02-20T12:59:34;97513.31;;;19.14;64.85
40992;BME280;29633;49.168;9.848;2023-02-20T13:04:52;97509.56;;;19.16;64.99
40992;BME280;29633;49.168;9.848;2023-02-20T13:07:23;97507.13;;;19.23;64.61
40992;BME280;29633;49.168;9.848;2023-02-20T13:10:19;97501.53;;;19.26;64.90
40992;BME280;29633;49.168;9.848;2023-02-20T13:12:42;97502.53;;;19.33;64.89
40992;BME280;29633;49.168;9.848;2023-02-20T13:15:29;97490.28;;;19.42;64.86
40992;BME280;29633;49.168;9.848;2023-02-20T13:18:33;97484.53;;;19.54;64.77
40992;BME280;29633;49.168;9.848;2023-02-20T13:21:08;97489.16;;;19.69;64.76
40992;BME280;29633;49.168;9.848;2023-02-20T13:23:35;97480.13;;;19.79;64.90
40992;BME280;29633;49.168;9.848;2023-02-20T13:26:02;97466.50;;;19.92;65.12
40992;BME280;29633;49.168;9.848;2023-02-20T13:28:47;97471.78;;;20.00;65.39
40992;BME280;29633;49.168;9.848;2023-02-20T13:33:42;97466.78;;;20.61;65.29
40992;BME280;29633;49.168;9.848;2023-02-20T13:36:17;97463.69;;;20.97;65.66
40992;BME280;29633;49.168;9.848;2023-02-20T14:03:26;97425.38;;;23.04;64.20
40992;BME280;29633;49.168;9.848;2023-02-20T14:08:41;97417.44;;;23.19;63.84
40992;BME280;29633;49.168;9.848;2023-02-20T14:11:10;97409.63;;;23.32;64.16
40992;BME280;29633;49.168;9.848;2023-02-20T14:13:36;97412.88;;;23.34;64.26
40992;BME280;29633;49.168;9.848;2023-02-20T14:16:03;97404.13;;;23.33;64.57
40992;BME280;29633;49.168;9.848;2023-02-20T14:18:31;97415.44;;;23.42;64.05
40992;BME280;29633;49.168;9.848;2023-02-20T14:21:17;97403.94;;;23.49;64.31
40992;BME280;29633;49.168;9.848;2023-02-20T14:23:45;97414.56;;;23.56;64.13
40992;BME280;29633;49.168;9.848;2023-02-20T14:26:32;97402.16;;;23.57;64.10
40992;BME280;29633;49.168;9.848;2023-02-20T14:28:59;97408.09;;;23.80;63.84
40992;BME280;29633;49.168;9.848;2023-02-20T14:31:27;97411.16;;;24.05;63.70
40992;BME280;29633;49.168;9.848;2023-02-20T14:34:16;97408.28;;;24.27;63.71
40992;BME280;29633;49.168;9.848;2023-02-20T14:39:49;97412.91;;;24.53;62.89
40992;BME280;29633;49.168;9.848;2023-02-20T14:42:19;97407.19;;;24.49;61.72
40992;BME280;29633;49.168;9.848;2023-02-20T14:45:01;97406.69;;;24.33;62.17
40992;BME280;29633;49.168;9.848;2023-02-20T14:47:27;97413.34;;;24.22;62.10
40992;BME280;29633;49.168;9.848;2023-02-20T14:49:53;97411.31;;;24.24;62.19
40992;BME280;29633;49.168;9.848;2023-02-20T14:52:31;97409.44;;;24.18;62.04
40992;BME280;29633;49.168;9.848;2023-02-20T14:55:00;97428.09;;;24.10;61.78
40992;BME280;29633;49.168;9.848;2023-02-20T14:57:27;97414.19;;;24.01;61.52
40992;BME280;29633;49.168;9.848;2023-02-20T15:00:31;97414.81;;;23.82;61.43
40992;BME280;29633;49.168;9.848;2023-02-20T15:02:58;97405.81;;;23.77;61.34
40992;BME280;29633;49.168;9.848;2023-02-20T15:05:31;97405.19;;;23.75;61.05
40992;BME280;29633;49.168;9.848;2023-02-20T15:08:22;97407.00;;;23.74;60.90
40992;BME280;29633;49.168;9.848;2023-02-20T15:10:54;97399.19;;;23.66;60.53